Terminal Aerodrome Forecast
Issued by NWS Mt. Holly, NJ

Home | Current Version | Previous Version | Text Only | Print | Product List | Glossary On
Versions: 1 2 3 4 5 6 7 8 9 10 11 12 13 14 15 16
000
FTUS41 KPHI 311100
TAFILG
TAF
KILG 311131Z 3112/0112 36005KT P6SM SCT050
     FM311400 03006KT P6SM SCT050
     FM311800 05006KT P6SM BKN035
     FM010400 02006KT P6SM OVC025
     FM011000 02010G18KT 5SM -RA OVC015=

USA.gov is the U.S. government's official web portal to all federal, state and local government web resources and services.